createdAt,value
2022-10-25T00:00:26.010Z,3.00
2022-10-25T00:00:57.855Z,3.15
2022-10-25T00:01:30.581Z,3.17
2022-10-25T00:02:02.096Z,2.95
2022-10-25T00:02:33.659Z,3.22
2022-10-25T00:03:05.702Z,3.27
2022-10-25T00:03:37.090Z,3.08
2022-10-25T00:04:08.539Z,2.90
2022-10-25T00:04:40.019Z,3.20
2022-10-25T00:05:15.353Z,3.70
2022-10-25T00:05:46.779Z,3.42
2022-10-25T00:06:18.371Z,3.05
2022-10-25T00:06:49.709Z,2.97
2022-10-25T00:07:21.067Z,2.97
2022-10-25T00:07:52.478Z,3.50
2022-10-25T00:08:23.863Z,3.22
2022-10-25T00:08:55.302Z,2.70
2022-10-25T00:09:26.686Z,3.33
2022-10-25T00:09:58.079Z,2.85
2022-10-25T00:10:32.586Z,2.80
2022-10-25T00:11:08.266Z,3.20
2022-10-25T00:11:39.602Z,2.30
2022-10-25T00:12:11.049Z,2.92
2022-10-25T00:12:44.029Z,3.20
2022-10-25T00:13:15.453Z,3.00
2022-10-25T00:13:48.634Z,2.95
2022-10-25T00:14:20.074Z,3.25
2022-10-25T00:14:51.508Z,3.30
2022-10-25T00:15:22.946Z,2.92
2022-10-25T00:15:56.640Z,2.90
2022-10-25T00:16:32.421Z,2.97
2022-10-25T00:17:03.863Z,3.10
2022-10-25T00:17:36.459Z,3.05
2022-10-25T00:18:07.861Z,2.90
2022-10-25T00:18:39.360Z,3.38
2022-10-25T00:19:10.736Z,2.88
2022-10-25T00:19:42.171Z,2.97
2022-10-25T00:20:14.022Z,3.30
2022-10-25T00:20:45.459Z,3.05
2022-10-25T00:21:16.904Z,3.00
2022-10-25T00:21:48.485Z,3.58
2022-10-25T00:22:19.927Z,2.92
2022-10-25T00:22:51.360Z,2.95
2022-10-25T00:23:22.748Z,3.42
2022-10-25T00:23:54.349Z,3.10
2022-10-25T00:24:25.826Z,2.37
2022-10-25T00:24:57.619Z,3.28
2022-10-25T00:25:29.010Z,3.90
2022-10-25T00:26:01.267Z,3.15
2022-10-25T00:26:32.807Z,3.00
2022-10-25T00:27:05.268Z,3.10
2022-10-25T00:27:36.804Z,3.50
2022-10-25T00:28:08.398Z,2.85
2022-10-25T00:28:39.987Z,3.20
2022-10-25T00:29:11.555Z,3.90
2022-10-25T00:29:43.020Z,3.50
2022-10-25T00:30:14.909Z,2.95
2022-10-25T00:30:46.352Z,2.95
2022-10-25T00:31:17.852Z,4.03
2022-10-25T00:31:49.271Z,3.40
2022-10-25T00:32:20.708Z,3.03
2022-10-25T00:32:52.052Z,3.72
2022-10-25T00:33:23.480Z,3.80
2022-10-25T00:33:54.986Z,4.00
2022-10-25T00:34:26.395Z,3.20
2022-10-25T00:34:57.896Z,3.78
2022-10-25T00:35:29.290Z,3.80
2022-10-25T00:36:04.920Z,3.22
2022-10-25T00:36:36.515Z,2.78
2022-10-25T00:37:08.000Z,3.03
2022-10-25T00:37:39.472Z,3.30
2022-10-25T00:38:10.964Z,3.58
2022-10-25T00:38:42.516Z,3.28
2022-10-25T00:39:13.900Z,3.70
2022-10-25T00:39:46.161Z,3.65
2022-10-25T00:40:18.210Z,3.75
2022-10-25T00:40:49.708Z,3.40
2022-10-25T00:41:22.724Z,3.40
2022-10-25T00:41:54.113Z,3.83
2022-10-25T00:42:26.685Z,3.80
2022-10-25T00:42:58.113Z,4.57
2022-10-25T00:43:30.971Z,4.40
2022-10-25T00:44:20.855Z,3.88
2022-10-25T00:44:53.722Z,3.40
2022-10-25T00:45:26.033Z,3.67
2022-10-25T00:45:57.495Z,3.95
2022-10-25T00:46:31.227Z,4.25
2022-10-25T00:47:04.597Z,3.33
2022-10-25T00:47:44.930Z,4.22
2022-10-25T00:48:16.687Z,3.25
2022-10-25T00:48:57.236Z,3.60
2022-10-25T00:49:28.717Z,3.00
2022-10-25T00:50:00.068Z,4.10
2022-10-25T00:50:50.801Z,4.10
2022-10-25T00:51:24.231Z,3.92
2022-10-25T00:52:00.185Z,4.15
2022-10-25T00:52:33.464Z,3.47
2022-10-25T00:53:07.458Z,4.53
2022-10-25T00:53:38.845Z,3.75
2022-10-25T00:54:11.531Z,3.35
2022-10-25T00:54:45.117Z,3.78
2022-10-25T00:55:18.421Z,4.20
2022-10-25T00:55:53.649Z,3.38
2022-10-25T00:56:27.749Z,3.92
2022-10-25T00:57:01.806Z,4.13
2022-10-25T00:57:36.320Z,3.40
2022-10-25T00:58:13.540Z,3.70
2022-10-25T00:58:51.563Z,4.18
2022-10-25T00:59:24.957Z,3.58
2022-10-25T00:59:56.799Z,3.85
2022-10-25T01:00:28.250Z,3.92
2022-10-25T01:00:59.886Z,4.15
2022-10-25T01:01:31.626Z,4.20
2022-10-25T01:02:03.211Z,3.38
2022-10-25T01:02:35.121Z,4.38
2022-10-25T01:03:06.711Z,4.47
2022-10-25T01:03:39.634Z,4.78
2022-10-25T01:04:12.649Z,4.13
2022-10-25T01:04:44.249Z,4.00
2022-10-25T01:05:16.411Z,4.25
2022-10-25T01:05:48.705Z,4.10
2022-10-25T01:06:29.414Z,4.32
2022-10-25T01:07:01.512Z,4.20
2022-10-25T01:07:32.897Z,5.10
2022-10-25T01:08:05.207Z,4.85
2022-10-25T01:08:37.157Z,4.80
2022-10-25T01:09:13.712Z,4.60
2022-10-25T01:09:45.108Z,4.32
2022-10-25T01:10:16.551Z,4.38
2022-10-25T01:10:48.032Z,4.82
2022-10-25T01:11:19.925Z,4.90
2022-10-25T01:11:51.362Z,4.32
2022-10-25T01:12:22.800Z,5.05
2022-10-25T01:12:54.670Z,4.65
2022-10-25T01:13:26.282Z,4.20
2022-10-25T01:13:57.868Z,4.75
2022-10-25T01:14:29.717Z,4.65
2022-10-25T01:15:01.878Z,4.63
2022-10-25T01:15:53.491Z,5.65
2022-10-25T01:16:45.097Z,4.25
2022-10-25T01:17:16.441Z,4.38
2022-10-25T01:17:52.183Z,5.43
2022-10-25T01:18:28.265Z,5.03
2022-10-25T01:19:25.727Z,5.18
2022-10-25T01:20:15.849Z,6.05
2022-10-25T01:20:47.184Z,5.00
2022-10-25T01:21:24.410Z,5.50
2022-10-25T01:22:03.005Z,5.15
2022-10-25T01:22:37.214Z,4.57
2022-10-25T01:23:27.432Z,5.03
2022-10-25T01:24:11.738Z,5.30
2022-10-25T01:24:55.236Z,4.97
2022-10-25T01:25:45.373Z,5.20
2022-10-25T01:26:22.491Z,5.25
2022-10-25T01:27:01.962Z,5.57
2022-10-25T01:28:51.638Z,5.85
2022-10-25T01:29:28.653Z,5.35
2022-10-25T01:30:12.687Z,5.45
2022-10-25T01:30:46.877Z,5.88
2022-10-25T01:31:20.991Z,6.10
2022-10-25T01:31:55.425Z,5.65
2022-10-25T01:32:33.496Z,5.53
2022-10-25T01:33:08.617Z,5.90
2022-10-25T01:33:43.902Z,5.68
2022-10-25T01:34:26.321Z,6.32
2022-10-25T01:35:09.189Z,5.47
2022-10-25T01:35:54.815Z,5.90
2022-10-25T01:36:28.959Z,6.25
2022-10-25T01:37:06.340Z,5.50
2022-10-25T01:37:56.572Z,6.47
2022-10-25T01:38:37.129Z,6.32
2022-10-25T01:39:20.900Z,6.30
2022-10-25T01:39:55.817Z,4.72
2022-10-25T01:40:36.835Z,6.22
2022-10-25T01:41:20.246Z,6.85
2022-10-25T01:41:54.391Z,5.68
2022-10-25T01:42:44.520Z,5.75
2022-10-25T01:43:34.699Z,6.75
2022-10-25T01:44:08.794Z,6.68
2022-10-25T01:45:12.800Z,6.50
2022-10-25T01:45:52.088Z,5.78
2022-10-25T01:46:31.191Z,6.43
2022-10-25T01:47:04.367Z,6.18
2022-10-25T01:47:39.234Z,6.28
2022-10-25T01:48:13.599Z,5.43
2022-10-25T01:48:50.246Z,6.53
2022-10-25T01:49:25.576Z,6.45
2022-10-25T01:50:00.037Z,6.75
2022-10-25T01:50:33.062Z,7.03
2022-10-25T01:51:05.727Z,6.20
2022-10-25T01:51:37.664Z,7.10
2022-10-25T01:52:09.111Z,6.65
2022-10-25T01:52:40.504Z,6.90
2022-10-25T01:53:12.353Z,6.32
2022-10-25T01:53:50.852Z,7.10
2022-10-25T01:54:23.676Z,6.15
2022-10-25T01:54:55.059Z,6.25
2022-10-25T01:55:29.866Z,6.23
2022-10-25T01:56:02.432Z,6.45
2022-10-25T01:56:36.847Z,5.63
2022-10-25T01:57:27.069Z,6.20
2022-10-25T01:58:10.407Z,6.57
2022-10-25T01:58:41.720Z,6.30
2022-10-25T01:59:15.939Z,7.18
2022-10-25T01:59:53.493Z,6.10
2022-10-25T02:00:25.504Z,8.23
2022-10-25T02:01:08.199Z,6.72
2022-10-25T02:01:50.885Z,6.93
2022-10-25T02:02:41.032Z,6.63
2022-10-25T02:03:18.304Z,6.43
2022-10-25T02:03:53.950Z,6.45
2022-10-25T02:04:43.470Z,6.88
2022-10-25T02:05:22.107Z,6.93
2022-10-25T02:05:58.618Z,6.95
2022-10-25T02:06:34.459Z,6.95
2022-10-25T02:07:15.518Z,6.85
2022-10-25T02:08:13.323Z,6.10
2022-10-25T02:08:49.883Z,6.80
2022-10-25T02:09:27.818Z,6.50
2022-10-25T02:10:02.344Z,6.18
2022-10-25T02:11:09.196Z,6.70
2022-10-25T02:11:40.634Z,7.25
2022-10-25T02:12:14.789Z,6.63
2022-10-25T02:12:55.651Z,7.68
2022-10-25T02:13:52.426Z,7.32
2022-10-25T02:14:27.402Z,7.07
2022-10-25T02:15:06.199Z,7.35
2022-10-25T02:15:40.443Z,7.45
2022-10-25T02:16:13.845Z,7.57
2022-10-25T02:16:47.803Z,6.60
2022-10-25T02:17:21.245Z,6.47
2022-10-25T02:17:55.733Z,7.03
2022-10-25T02:19:06.756Z,6.53
2022-10-25T02:19:41.001Z,6.32
2022-10-25T02:20:15.375Z,6.35
2022-10-25T02:20:47.779Z,6.28
2022-10-25T02:21:19.820Z,6.25
2022-10-25T02:21:51.670Z,6.32
2022-10-25T02:22:24.843Z,6.82
2022-10-25T02:22:57.718Z,7.25
2022-10-25T02:23:29.720Z,7.25
2022-10-25T02:24:03.632Z,6.22
2022-10-25T02:24:35.819Z,6.68
2022-10-25T02:25:08.379Z,5.97
2022-10-25T02:25:40.741Z,6.05
2022-10-25T02:26:12.859Z,6.47
2022-10-25T02:26:45.030Z,6.25
2022-10-25T02:27:17.201Z,6.45
2022-10-25T02:27:50.490Z,6.75
2022-10-25T02:28:24.277Z,6.65
2022-10-25T02:28:56.897Z,6.47
2022-10-25T02:29:30.172Z,6.90
2022-10-25T02:30:01.862Z,5.10
2022-10-25T02:30:34.469Z,6.20
2022-10-25T02:31:11.338Z,6.18
2022-10-25T02:31:43.548Z,5.82
2022-10-25T02:32:15.037Z,6.22
2022-10-25T02:32:46.528Z,6.53
2022-10-25T02:33:17.962Z,6.20
2022-10-25T02:33:50.120Z,7.10
2022-10-25T02:34:21.517Z,5.93
2022-10-25T02:34:52.947Z,5.85
2022-10-25T02:35:24.326Z,7.00
2022-10-25T02:36:06.017Z,7.03
2022-10-25T02:36:37.440Z,6.70
2022-10-25T02:37:09.652Z,6.78
2022-10-25T02:37:41.290Z,6.75
2022-10-25T02:38:12.730Z,6.68
2022-10-25T02:38:44.319Z,7.30
2022-10-25T02:39:16.419Z,6.63
2022-10-25T02:39:48.829Z,6.47
2022-10-25T02:40:20.524Z,6.10
2022-10-25T02:40:51.920Z,6.28
2022-10-25T02:41:23.551Z,6.15
2022-10-25T02:41:55.098Z,6.27
2022-10-25T02:42:26.580Z,5.38
2022-10-25T02:42:57.963Z,5.57
2022-10-25T02:44:05.762Z,6.25
2022-10-25T02:44:37.141Z,5.90
2022-10-25T02:45:08.731Z,6.57
2022-10-25T02:45:40.119Z,6.35
2022-10-25T02:46:14.071Z,6.47
2022-10-25T02:46:45.449Z,5.85
2022-10-25T02:47:16.783Z,6.15
2022-10-25T02:47:48.513Z,6.57
2022-10-25T02:48:20.167Z,6.30
2022-10-25T02:48:51.818Z,6.32
2022-10-25T02:49:23.251Z,5.70
2022-10-25T02:49:54.603Z,6.15
2022-10-25T02:50:26.024Z,5.97
2022-10-25T02:50:57.407Z,5.88
2022-10-25T02:51:28.790Z,7.20
2022-10-25T02:52:00.289Z,6.00
2022-10-25T02:52:31.722Z,6.20
2022-10-25T02:53:03.055Z,6.30
2022-10-25T02:53:34.733Z,7.15
2022-10-25T02:54:06.146Z,6.05
2022-10-25T02:54:37.572Z,7.22
2022-10-25T02:55:09.056Z,5.70
2022-10-25T02:55:40.493Z,5.80
2022-10-25T02:56:13.360Z,6.80
2022-10-25T02:56:44.750Z,6.10
2022-10-25T02:57:16.091Z,5.63
2022-10-25T02:57:47.479Z,6.05
2022-10-25T02:58:18.862Z,6.38
2022-10-25T02:58:51.063Z,7.10
2022-10-25T02:59:22.502Z,6.35
2022-10-25T02:59:53.892Z,6.57
2022-10-25T03:00:25.333Z,6.40
2022-10-25T03:00:56.900Z,7.10
2022-10-25T03:01:28.557Z,6.53
2022-10-25T03:02:00.061Z,6.43
2022-10-25T03:02:31.491Z,6.40
2022-10-25T03:03:02.882Z,6.50
2022-10-25T03:03:34.617Z,6.05
2022-10-25T03:04:06.006Z,6.95
2022-10-25T03:04:37.388Z,7.07
2022-10-25T03:05:08.878Z,6.75
2022-10-25T03:05:40.266Z,6.90
2022-10-25T03:06:12.011Z,7.25
2022-10-25T03:06:43.395Z,6.68
2022-10-25T03:07:14.736Z,7.03
2022-10-25T03:07:46.134Z,5.95
2022-10-25T03:08:17.641Z,6.55
2022-10-25T03:08:49.094Z,7.30
2022-10-25T03:09:20.584Z,5.97
2022-10-25T03:09:52.227Z,6.07
2022-10-25T03:10:23.610Z,6.10
2022-10-25T03:10:55.369Z,7.45
2022-10-25T03:11:26.828Z,6.78
2022-10-25T03:11:58.241Z,6.78
2022-10-25T03:12:29.670Z,6.50
2022-10-25T03:13:01.063Z,6.85
2022-10-25T03:13:32.717Z,7.20
2022-10-25T03:14:04.187Z,8.30
2022-10-25T03:14:35.722Z,6.97
2022-10-25T03:15:07.478Z,7.32
2022-10-25T03:15:38.940Z,7.32
2022-10-25T03:16:10.315Z,6.88
2022-10-25T03:16:41.836Z,7.50
2022-10-25T03:17:13.272Z,7.10
2022-10-25T03:17:45.066Z,6.93
2022-10-25T03:18:16.847Z,7.33
2022-10-25T03:18:48.249Z,7.15
2022-10-25T03:19:19.709Z,7.78
2022-10-25T03:19:51.069Z,7.72
2022-10-25T03:20:22.463Z,6.78
2022-10-25T03:21:00.806Z,7.47
2022-10-25T03:21:32.454Z,7.18
2022-10-25T03:22:04.007Z,7.15
2022-10-25T03:22:35.377Z,6.65
2022-10-25T03:23:07.124Z,7.00
2022-10-25T03:23:38.564Z,7.75
2022-10-25T03:24:10.107Z,7.20
2022-10-25T03:24:41.484Z,7.05
2022-10-25T03:25:12.911Z,6.60
2022-10-25T03:25:44.403Z,7.55
2022-10-25T03:26:15.789Z,6.95
2022-10-25T03:26:47.189Z,7.00
2022-10-25T03:27:18.575Z,7.22
2022-10-25T03:27:50.562Z,7.32
2022-10-25T03:28:22.016Z,7.55
2022-10-25T03:28:53.387Z,7.05
2022-10-25T03:29:24.726Z,7.15
2022-10-25T03:29:56.104Z,7.55
2022-10-25T03:30:28.214Z,9.13
2022-10-25T03:31:00.265Z,8.45
2022-10-25T03:31:31.662Z,6.82
2022-10-25T03:32:03.041Z,7.57
2022-10-25T03:32:34.419Z,7.07
2022-10-25T03:33:05.813Z,6.85
2022-10-25T03:33:37.192Z,7.93
2022-10-25T03:34:08.579Z,7.07
2022-10-25T03:34:39.965Z,7.18
2022-10-25T03:35:11.456Z,7.73
2022-10-25T03:35:42.843Z,7.85
2022-10-25T03:36:14.322Z,7.90
2022-10-25T03:36:45.666Z,7.72
2022-10-25T03:37:16.997Z,8.10
2022-10-25T03:37:48.946Z,7.88
2022-10-25T03:38:21.009Z,8.05
2022-10-25T03:38:52.432Z,7.72
2022-10-25T03:39:23.782Z,7.65
2022-10-25T03:39:55.169Z,7.68
2022-10-25T03:40:26.643Z,7.30
2022-10-25T03:40:58.224Z,7.38
2022-10-25T03:41:29.728Z,8.38
2022-10-25T03:42:01.059Z,7.47
2022-10-25T03:42:32.498Z,7.93
2022-10-25T03:43:03.831Z,7.65
2022-10-25T03:43:35.222Z,7.88
2022-10-25T03:44:06.613Z,7.57
2022-10-25T03:44:38.029Z,7.63
2022-10-25T03:45:09.727Z,7.87
2022-10-25T03:45:41.065Z,7.55
2022-10-25T03:46:12.422Z,8.48
2022-10-25T03:46:43.833Z,8.02
2022-10-25T03:47:15.643Z,7.50
2022-10-25T03:47:47.153Z,7.43
2022-10-25T03:48:18.874Z,7.50
2022-10-25T03:48:52.406Z,7.40
2022-10-25T03:49:23.842Z,7.25
2022-10-25T03:49:55.233Z,7.68
2022-10-25T03:50:26.621Z,8.40
2022-10-25T03:50:58.014Z,8.43
2022-10-25T03:51:29.389Z,7.63
2022-10-25T03:52:02.817Z,8.43
2022-10-25T03:52:36.413Z,8.20
2022-10-25T03:53:40.460Z,8.35
2022-10-25T03:54:11.851Z,8.40
2022-10-25T03:54:43.236Z,8.77
2022-10-25T03:55:14.622Z,8.77
2022-10-25T03:55:46.022Z,8.48
2022-10-25T03:56:17.389Z,8.55
2022-10-25T03:56:48.768Z,8.90
2022-10-25T03:57:20.321Z,9.02
2022-10-25T03:57:51.655Z,8.25
2022-10-25T03:58:23.042Z,8.35
2022-10-25T03:58:54.426Z,8.27
2022-10-25T03:59:25.916Z,9.25
2022-10-25T03:59:57.316Z,7.95
2022-10-25T04:00:28.797Z,8.90
2022-10-25T04:01:00.356Z,8.35
2022-10-25T04:01:31.971Z,8.40
2022-10-25T04:02:03.607Z,8.85
2022-10-25T04:02:35.108Z,8.45
2022-10-25T04:03:42.847Z,8.80
2022-10-25T04:04:14.235Z,11.20
2022-10-25T04:04:45.614Z,8.75
2022-10-25T04:05:17.057Z,8.88
2022-10-25T04:05:48.436Z,7.97
2022-10-25T04:06:19.819Z,8.85
2022-10-25T04:06:51.202Z,8.38
2022-10-25T04:07:22.606Z,9.02
2022-10-25T04:07:54.027Z,8.07
2022-10-25T04:08:25.418Z,8.90
2022-10-25T04:08:57.315Z,8.45
2022-10-25T04:09:28.705Z,8.82
2022-10-25T04:10:00.149Z,8.82
2022-10-25T04:10:31.532Z,8.18
2022-10-25T04:11:03.013Z,8.48
2022-10-25T04:11:34.400Z,8.40
2022-10-25T04:12:05.848Z,8.43
2022-10-25T04:12:37.220Z,7.35
2022-10-25T04:13:09.016Z,7.67
2022-10-25T04:13:40.406Z,7.22
2022-10-25T04:14:11.847Z,8.35
2022-10-25T04:14:43.440Z,7.77
2022-10-25T04:15:14.815Z,7.43
2022-10-25T04:15:46.204Z,7.93
2022-10-25T04:16:19.099Z,8.18
2022-10-25T04:16:50.667Z,8.50
2022-10-25T04:17:22.063Z,8.18
2022-10-25T04:17:53.545Z,7.80
2022-10-25T04:18:24.935Z,7.18
2022-10-25T04:18:56.431Z,7.50
2022-10-25T04:19:27.845Z,7.35
2022-10-25T04:19:59.244Z,8.40
2022-10-25T04:20:30.624Z,8.45
2022-10-25T04:21:02.013Z,7.95
2022-10-25T04:21:33.398Z,7.68
2022-10-25T04:22:04.991Z,7.60
2022-10-25T04:23:08.634Z,7.88
2022-10-25T04:23:40.069Z,6.90
2022-10-25T04:24:11.452Z,7.32
2022-10-25T04:24:42.788Z,8.02
2022-10-25T04:25:14.171Z,7.07
2022-10-25T04:25:45.648Z,7.10
2022-10-25T04:26:17.101Z,7.50
2022-10-25T04:26:48.549Z,7.28
2022-10-25T04:27:19.976Z,7.10
2022-10-25T04:27:51.367Z,6.78
2022-10-25T04:28:23.361Z,7.10
2022-10-25T04:28:55.520Z,7.88
2022-10-25T04:29:26.912Z,7.32
2022-10-25T04:29:58.347Z,7.40
2022-10-25T04:30:29.723Z,6.90
2022-10-25T04:31:01.107Z,7.05
2022-10-25T04:31:32.803Z,7.22
2022-10-25T04:32:04.293Z,7.87
2022-10-25T04:32:35.637Z,7.45
2022-10-25T04:33:07.334Z,7.43
2022-10-25T04:33:38.759Z,8.13
2022-10-25T04:34:10.197Z,7.50
2022-10-25T04:34:41.544Z,7.05
2022-10-25T04:35:12.972Z,7.03
2022-10-25T04:35:44.356Z,7.00
2022-10-25T04:36:15.798Z,7.53
2022-10-25T04:36:47.190Z,7.43
2022-10-25T04:37:18.574Z,8.00
2022-10-25T04:37:50.001Z,7.35
2022-10-25T04:38:21.438Z,7.63
2022-10-25T04:38:52.989Z,7.68
2022-10-25T04:39:24.415Z,7.80
2022-10-25T04:39:55.903Z,7.55
2022-10-25T04:40:27.545Z,7.15
2022-10-25T04:40:59.798Z,6.82
2022-10-25T04:41:31.188Z,7.07
2022-10-25T04:42:02.606Z,8.07
2022-10-25T04:42:34.475Z,7.68
2022-10-25T04:43:05.916Z,7.32
2022-10-25T04:43:37.296Z,6.90
2022-10-25T04:44:09.041Z,7.50
2022-10-25T04:44:40.425Z,7.47
2022-10-25T04:45:11.764Z,7.90
2022-10-25T04:45:43.146Z,6.72
2022-10-25T04:46:15.067Z,7.35
2022-10-25T04:46:48.754Z,7.38
2022-10-25T04:47:20.531Z,6.50
2022-10-25T04:47:51.925Z,8.00
2022-10-25T04:48:23.298Z,6.88
2022-10-25T04:48:54.636Z,7.78
2022-10-25T04:49:26.028Z,8.70
2022-10-25T04:49:57.412Z,7.80
2022-10-25T04:50:28.799Z,9.23
2022-10-25T04:51:00.136Z,7.80
2022-10-25T04:51:31.523Z,6.97
2022-10-25T04:52:02.858Z,7.68
2022-10-25T04:52:34.256Z,7.68
2022-10-25T04:53:05.784Z,7.45
2022-10-25T04:53:37.165Z,7.35
2022-10-25T04:54:08.550Z,7.50
2022-10-25T04:54:39.988Z,7.60
2022-10-25T04:55:11.480Z,7.40
2022-10-25T04:55:42.861Z,7.53
2022-10-25T04:56:14.305Z,7.40
2022-10-25T04:56:45.696Z,6.72
2022-10-25T04:57:17.150Z,6.93
2022-10-25T04:57:48.551Z,7.47
2022-10-25T04:58:19.960Z,6.80
2022-10-25T04:58:51.487Z,7.88
2022-10-25T04:59:22.822Z,7.32
2022-10-25T04:59:54.210Z,6.18
2022-10-25T05:00:25.854Z,7.72
2022-10-25T05:01:01.094Z,6.95
2022-10-25T05:01:32.790Z,6.78
2022-10-25T05:02:04.361Z,7.05
2022-10-25T05:02:35.811Z,6.60
2022-10-25T05:03:10.850Z,6.95
2022-10-25T05:03:44.827Z,6.70
2022-10-25T05:04:16.255Z,7.10
2022-10-25T05:04:47.795Z,7.13
2022-10-25T05:05:19.283Z,6.70
2022-10-25T05:05:50.749Z,6.43
2022-10-25T05:06:23.426Z,7.55
2022-10-25T05:06:54.926Z,7.25
2022-10-25T05:07:26.313Z,6.95
2022-10-25T05:07:57.657Z,6.80
2022-10-25T05:08:29.107Z,6.97
2022-10-25T05:09:00.556Z,6.32
2022-10-25T05:09:31.961Z,5.72
2022-10-25T05:10:03.397Z,6.43
2022-10-25T05:10:34.841Z,7.40
2022-10-25T05:11:06.529Z,6.82
2022-10-25T05:11:37.897Z,6.28
2022-10-25T05:12:09.296Z,5.83
2022-10-25T05:12:40.751Z,5.38
2022-10-25T05:13:12.169Z,5.80
2022-10-25T05:13:44.021Z,5.35
2022-10-25T05:14:15.406Z,5.88
2022-10-25T05:14:46.802Z,6.50
2022-10-25T05:15:18.175Z,5.80
2022-10-25T05:15:56.426Z,5.47
2022-10-25T05:16:27.802Z,6.55
2022-10-25T05:16:59.198Z,5.87
2022-10-25T05:17:30.591Z,5.47
2022-10-25T05:18:02.106Z,5.57
2022-10-25T05:18:34.479Z,5.53
2022-10-25T05:19:05.926Z,5.93
2022-10-25T05:19:37.308Z,5.13
2022-10-25T05:20:08.901Z,5.05
2022-10-25T05:20:40.283Z,5.20
2022-10-25T05:21:12.180Z,5.82
2022-10-25T05:21:43.570Z,4.93
2022-10-25T05:22:14.952Z,5.43
2022-10-25T05:22:46.638Z,5.18
2022-10-25T05:23:18.187Z,5.60
2022-10-25T05:23:49.571Z,5.50
2022-10-25T05:24:21.056Z,5.60
2022-10-25T05:24:52.648Z,5.57
2022-10-25T05:25:24.044Z,5.78
2022-10-25T05:26:05.928Z,5.20
2022-10-25T05:26:37.632Z,5.28
2022-10-25T05:27:09.049Z,5.40
2022-10-25T05:27:40.409Z,5.82
2022-10-25T05:28:11.772Z,5.25
2022-10-25T05:28:43.966Z,6.65
2022-10-25T05:29:15.359Z,5.90
2022-10-25T05:29:47.259Z,6.15
2022-10-25T05:30:18.647Z,6.32
2022-10-25T05:30:49.980Z,5.70
2022-10-25T05:31:25.720Z,5.78
2022-10-25T05:31:57.118Z,5.82
2022-10-25T05:32:29.725Z,6.80
2022-10-25T05:33:04.056Z,6.22
2022-10-25T05:33:36.317Z,5.13
2022-10-25T05:34:07.928Z,5.13
2022-10-25T05:34:39.303Z,5.00
2022-10-25T05:35:10.698Z,5.97
2022-10-25T05:35:42.082Z,5.75
2022-10-25T05:36:14.183Z,5.15
2022-10-25T05:36:45.577Z,6.10
2022-10-25T05:37:17.008Z,5.45
2022-10-25T05:37:48.361Z,5.25
2022-10-25T05:38:19.731Z,6.07
2022-10-25T05:38:51.167Z,5.00
2022-10-25T05:39:23.067Z,5.82
2022-10-25T05:39:54.453Z,6.00
2022-10-25T05:40:25.840Z,5.68
2022-10-25T05:41:00.985Z,5.78
2022-10-25T05:41:34.817Z,5.25
2022-10-25T05:42:08.504Z,6.57
2022-10-25T05:42:39.932Z,5.75
2022-10-25T05:43:11.265Z,5.55
2022-10-25T05:43:42.970Z,6.53
2022-10-25T05:44:14.252Z,6.47
2022-10-25T05:44:45.632Z,6.32
2022-10-25T05:45:17.019Z,5.50
2022-10-25T05:45:48.701Z,5.40
2022-10-25T05:46:21.583Z,5.32
2022-10-25T05:46:52.967Z,5.47
2022-10-25T05:47:24.308Z,5.68
2022-10-25T05:47:55.740Z,5.45
2022-10-25T05:48:27.148Z,5.88
2022-10-25T05:48:58.819Z,5.63
2022-10-25T05:49:30.207Z,6.15
2022-10-25T05:50:01.599Z,6.03
2022-10-25T05:50:33.014Z,5.45
2022-10-25T05:51:37.075Z,5.55
2022-10-25T05:52:09.335Z,6.65
2022-10-25T05:52:44.106Z,5.65
2022-10-25T05:53:15.589Z,5.97
2022-10-25T05:53:48.302Z,6.05
2022-10-25T05:54:19.696Z,5.95
2022-10-25T05:54:51.086Z,7.38
2022-10-25T05:55:22.420Z,5.75
2022-10-25T05:55:53.763Z,6.82
2022-10-25T05:56:26.317Z,6.70
2022-10-25T05:56:57.702Z,6.72
2022-10-25T05:57:29.089Z,6.18
2022-10-25T05:58:00.487Z,6.35
2022-10-25T05:58:31.919Z,6.75
2022-10-25T05:59:10.529Z,6.13
2022-10-25T05:59:41.905Z,6.13
2022-10-25T06:00:13.494Z,6.80
2022-10-25T06:00:44.904Z,6.75
2022-10-25T06:01:17.636Z,6.28
2022-10-25T06:01:49.218Z,6.88
2022-10-25T06:02:20.824Z,6.80
2022-10-25T06:02:52.281Z,5.78
2022-10-25T06:03:23.647Z,6.32
2022-10-25T06:03:55.614Z,5.35
2022-10-25T06:04:26.989Z,6.13
2022-10-25T06:04:58.330Z,6.20
2022-10-25T06:05:29.867Z,6.15
2022-10-25T06:06:02.173Z,6.28
2022-10-25T06:06:34.023Z,6.70
2022-10-25T06:07:05.408Z,6.28
2022-10-25T06:07:36.792Z,6.20
2022-10-25T06:08:08.178Z,5.63
2022-10-25T06:08:39.768Z,5.78
2022-10-25T06:09:11.649Z,5.90
2022-10-25T06:09:43.005Z,5.70
2022-10-25T06:10:14.393Z,5.50
2022-10-25T06:10:45.805Z,5.78
2022-10-25T06:11:18.402Z,6.00
2022-10-25T06:11:57.059Z,5.25
2022-10-25T06:12:28.452Z,5.05
2022-10-25T06:12:59.874Z,5.35
2022-10-25T06:13:31.563Z,6.15
2022-10-25T06:14:03.517Z,4.97
2022-10-25T06:14:34.920Z,6.13
2022-10-25T06:15:06.748Z,5.40
2022-10-25T06:15:38.238Z,5.40
2022-10-25T06:16:13.832Z,5.57
2022-10-25T06:16:45.262Z,5.03
2022-10-25T06:17:16.647Z,5.60
2022-10-25T06:17:48.050Z,5.65
2022-10-25T06:18:19.577Z,5.43
2022-10-25T06:18:50.962Z,5.60
2022-10-25T06:19:22.448Z,5.82
2022-10-25T06:19:54.010Z,5.35
2022-10-25T06:20:25.543Z,5.75
2022-10-25T06:21:03.103Z,5.55
2022-10-25T06:21:34.851Z,5.63
2022-10-25T06:22:06.303Z,6.70
2022-10-25T06:22:37.779Z,6.65
2022-10-25T06:23:11.103Z,5.15
2022-10-25T06:23:43.668Z,5.93
2022-10-25T06:24:15.067Z,5.32
2022-10-25T06:24:52.553Z,6.18
2022-10-25T06:25:23.990Z,5.50
2022-10-25T06:25:58.996Z,5.47
2022-10-25T06:26:30.743Z,5.40
2022-10-25T06:27:02.132Z,5.63
2022-10-25T06:27:36.332Z,6.03
2022-10-25T06:28:07.910Z,5.53
2022-10-25T06:28:39.972Z,5.80
2022-10-25T06:29:13.916Z,4.70
2022-10-25T06:29:48.221Z,5.95
2022-10-25T06:30:19.600Z,5.95
2022-10-25T06:30:51.149Z,5.82
2022-10-25T06:31:22.527Z,5.90
2022-10-25T06:31:54.072Z,5.57
2022-10-25T06:32:25.418Z,6.13
2022-10-25T06:32:57.676Z,5.93
2022-10-25T06:33:30.291Z,5.55
2022-10-25T06:34:02.313Z,6.88
2022-10-25T06:34:33.659Z,6.93
2022-10-25T06:35:05.347Z,6.57
2022-10-25T06:35:36.699Z,7.00
2022-10-25T06:36:10.510Z,7.15
2022-10-25T06:36:41.871Z,6.05
2022-10-25T06:37:13.355Z,5.43
2022-10-25T06:37:44.666Z,5.97
2022-10-25T06:38:16.076Z,5.40
2022-10-25T06:38:48.158Z,5.35
2022-10-25T06:39:19.565Z,5.70
2022-10-25T06:39:50.909Z,5.65
2022-10-25T06:41:03.089Z,6.22
2022-10-25T06:41:34.924Z,6.13
2022-10-25T06:42:06.261Z,6.00
2022-10-25T06:42:37.615Z,6.13
2022-10-25T06:43:08.935Z,6.50
2022-10-25T06:43:40.490Z,5.63
2022-10-25T06:44:11.820Z,6.13
2022-10-25T06:44:43.161Z,5.95
2022-10-25T06:45:14.487Z,6.25
2022-10-25T06:45:45.806Z,5.80
2022-10-25T06:46:20.057Z,5.97
2022-10-25T06:47:16.566Z,6.07
2022-10-25T06:47:45.046Z,6.43
2022-10-25T06:48:16.396Z,6.70
2022-10-25T06:48:47.912Z,6.68
2022-10-25T06:49:19.227Z,5.57
2022-10-25T06:49:50.581Z,5.55
2022-10-25T06:50:21.909Z,6.15
2022-10-25T06:51:06.169Z,6.85
2022-10-25T06:51:37.529Z,5.80
2022-10-25T06:52:08.883Z,6.57
2022-10-25T06:52:40.201Z,7.57
2022-10-25T06:53:11.534Z,6.53
2022-10-25T06:53:42.883Z,6.55
2022-10-25T06:54:14.231Z,6.88
2022-10-25T06:54:45.591Z,6.45
2022-10-25T06:55:16.923Z,7.23
2022-10-25T06:55:48.253Z,6.93
2022-10-25T06:56:19.607Z,6.00
2022-10-25T06:56:51.072Z,6.75
2022-10-25T06:57:22.411Z,6.15
2022-10-25T06:57:56.273Z,6.82
2022-10-25T06:58:29.517Z,6.35
2022-10-25T06:59:01.244Z,6.32
2022-10-25T06:59:32.564Z,6.25
2022-10-25T07:00:04.235Z,7.65
2022-10-25T07:00:35.581Z,6.95
2022-10-25T07:01:08.750Z,6.75
2022-10-25T07:01:40.291Z,6.68
2022-10-25T07:02:11.890Z,6.93
2022-10-25T07:02:43.484Z,6.75
2022-10-25T07:03:14.954Z,6.15
2022-10-25T07:03:46.581Z,6.07
2022-10-25T07:04:17.947Z,5.95
2022-10-25T07:04:49.262Z,6.00
2022-10-25T07:05:20.594Z,6.97
2022-10-25T07:05:51.941Z,6.03
2022-10-25T07:06:27.343Z,7.07
2022-10-25T07:06:59.097Z,5.63
2022-10-25T07:07:30.543Z,6.47
2022-10-25T07:08:01.875Z,5.95
2022-10-25T07:08:34.007Z,5.63
2022-10-25T07:09:05.566Z,6.17
2022-10-25T07:09:36.901Z,5.53
2022-10-25T07:10:08.514Z,7.07
2022-10-25T07:10:39.832Z,6.07
2022-10-25T07:11:13.602Z,5.77
2022-10-25T07:11:44.917Z,6.28
2022-10-25T07:12:16.340Z,6.38
2022-10-25T07:12:47.704Z,6.63
2022-10-25T07:13:19.052Z,6.40
2022-10-25T07:13:53.500Z,5.75
2022-10-25T07:14:24.841Z,5.53
2022-10-25T07:14:56.215Z,6.60
2022-10-25T07:15:27.645Z,6.03
2022-10-25T07:16:02.347Z,6.00
2022-10-25T07:16:33.786Z,5.80
2022-10-25T07:17:05.174Z,5.55
2022-10-25T07:17:36.614Z,5.80
2022-10-25T07:18:07.985Z,5.70
2022-10-25T07:18:39.595Z,5.45
2022-10-25T07:19:11.064Z,5.25
2022-10-25T07:19:42.426Z,5.10
2022-10-25T07:20:13.897Z,6.05
2022-10-25T07:20:45.572Z,6.00
2022-10-25T07:21:18.474Z,4.97
2022-10-25T07:21:50.197Z,4.88
2022-10-25T07:22:21.554Z,5.20
2022-10-25T07:22:55.522Z,5.50
2022-10-25T07:23:30.929Z,5.50